Time;durP1;ratioP1;P1;durP2;ratioP2;P2;SDS_P1;SDS_P2;PMS_P1;PMS_P2;Temp;Humidity;BMP_temperature;BMP_pressure;BME280_temperature;BME280_humidity;BME280_pressure;Samples;Min_cycle;Max_cycle;Signal;HPM_P1;HPM_P2
2023/06/06 00:01:03;;;;;;;13.43;8.98;;;;;;;-148.88;100.00;-17125.47;4957416;29;20042;-74
2023/06/06 00:03:28;;;;;;;15.63;8.80;;;;;;;-148.88;100.00;-17125.47;4957500;29;20052;-74
2023/06/06 00:05:55;;;;;;;13.85;9.25;;;;;;;-148.88;100.00;-17125.47;4957388;28;20066;-75
2023/06/06 00:08:23;;;;;;;14.25;8.80;;;;;;;-148.88;100.00;-17125.47;4957503;28;20023;-75
2023/06/06 00:10:49;;;;;;;13.82;8.98;;;;;;;-148.88;100.00;-17125.47;4990733;28;20011;-75
2023/06/06 00:13:15;;;;;;;14.00;9.65;;;;;;;-148.88;100.00;-17125.47;4961244;28;20114;-74
2023/06/06 00:15:41;;;;;;;16.42;9.23;;;;;;;-148.88;100.00;-17125.47;4957124;28;20023;-74
2023/06/06 00:18:06;;;;;;;15.80;9.35;;;;;;;-148.88;100.00;-17125.47;4957234;28;20050;-75
2023/06/06 00:20:32;;;;;;;13.55;9.00;;;;;;;-148.88;100.00;-17125.47;4955850;29;20557;-75
2023/06/06 00:22:59;;;;;;;14.25;8.95;;;;;;;-148.88;100.00;-17125.47;4957006;29;20030;-75
2023/06/06 00:25:25;;;;;;;15.77;9.32;;;;;;;-148.88;100.00;-17125.47;4956933;28;20122;-74
2023/06/06 00:27:50;;;;;;;14.57;9.10;;;;;;;-148.88;100.00;-17125.47;4971706;28;20417;-75
2023/06/06 00:30:15;;;;;;;17.40;9.23;;;;;;;-148.88;100.00;-17125.47;4956996;29;20397;-75
2023/06/06 00:32:41;;;;;;;16.30;9.60;;;;;;;-148.88;100.00;-17125.47;4955685;29;20133;-74
2023/06/06 00:35:06;;;;;;;14.98;10.00;;;;;;;-148.88;100.00;-17125.47;4956839;28;20507;-74
2023/06/06 00:37:32;;;;;;;17.30;10.85;;;;;;;-148.88;100.00;-17125.47;4956894;29;20024;-74
2023/06/06 00:39:57;;;;;;;19.13;10.70;;;;;;;-148.88;100.00;-17125.47;4956089;28;20046;-74
2023/06/06 00:42:22;;;;;;;13.73;9.52;;;;;;;-148.88;100.00;-17125.47;4956771;29;20429;-75
2023/06/06 00:44:48;;;;;;;16.15;9.77;;;;;;;-148.88;100.00;-17125.47;4955367;28;20367;-74
2023/06/06 00:47:13;;;;;;;16.42;9.40;;;;;;;-148.88;100.00;-17125.47;4957321;29;20030;-74
2023/06/06 00:49:40;;;;;;;17.83;11.13;;;;;;;-148.88;100.00;-17125.47;4957670;29;20019;-74
2023/06/06 00:52:06;;;;;;;16.90;10.52;;;;;;;-148.88;100.00;-17125.47;4956732;29;20240;-74
2023/06/06 00:54:34;;;;;;;18.08;10.35;;;;;;;-148.88;100.00;-17125.47;4956548;28;20102;-75
2023/06/06 00:57:00;;;;;;;19.35;10.48;;;;;;;-148.88;100.00;-17125.47;4956411;28;20031;-74
2023/06/06 00:59:26;;;;;;;18.05;11.32;;;;;;;-148.88;100.00;-17125.47;4956460;28;20050;-74
2023/06/06 01:01:51;;;;;;;17.90;11.10;;;;;;;-148.88;100.00;-17125.47;4956433;29;20048;-74
2023/06/06 01:04:17;;;;;;;18.98;11.50;;;;;;;-148.88;100.00;-17125.47;4956277;28;20026;-75
2023/06/06 01:06:43;;;;;;;20.25;11.30;;;;;;;-148.88;100.00;-17125.47;4954892;28;20082;-74
2023/06/06 01:09:11;;;;;;;18.75;12.23;;;;;;;-148.88;100.00;-17125.47;4956132;29;20023;-74
2023/06/06 01:11:45;;;;;;;19.20;11.52;;;;;;;-148.88;100.00;-17125.47;4954857;29;20050;-74
2023/06/06 01:14:36;;;;;;;20.42;11.63;;;;;;;-148.88;100.00;-17125.47;4956142;29;20501;-74
2023/06/06 01:17:08;;;;;;;12.52;6.20;;;;;;;-148.88;100.00;-17125.47;4954732;28;20074;-74
2023/06/06 01:19:35;;;;;;;20.60;10.93;;;;;;;-148.88;100.00;-17125.47;4956287;29;20027;-75
2023/06/06 01:22:01;;;;;;;20.70;12.30;;;;;;;-148.88;100.00;-17125.47;4954722;29;20027;-74
2023/06/06 01:24:28;;;;;;;21.92;13.38;;;;;;;-148.88;100.00;-17125.47;4955001;29;20481;-74
2023/06/06 01:26:54;;;;;;;18.77;12.32;;;;;;;-148.88;100.00;-17125.47;4956021;28;20027;-74
2023/06/06 01:29:20;;;;;;;18.65;12.05;;;;;;;-148.88;100.00;-17125.47;4954529;29;20027;-74
2023/06/06 01:32:05;;;;;;;22.45;12.77;;;;;;;-148.88;100.00;-17125.47;4955723;29;20477;-74
2023/06/06 01:34:55;;;;;;;25.95;14.02;;;;;;;-148.88;100.00;-17125.47;4955708;29;20565;-73
2023/06/06 01:37:31;;;;;;;21.38;12.75;;;;;;;-148.88;100.00;-17125.47;4954435;29;20078;-74
2023/06/06 01:39:58;;;;;;;21.30;13.93;;;;;;;-148.88;100.00;-17125.47;4955492;28;20039;-74
2023/06/06 01:42:24;;;;;;;21.17;7.50;;;;;;;-148.88;100.00;-17125.47;4955535;29;20027;-74
2023/06/06 01:44:52;;;;;;;22.10;13.25;;;;;;;-148.88;100.00;-17125.47;4955277;28;20098;-74
2023/06/06 01:47:18;;;;;;;21.92;13.30;;;;;;;-148.88;100.00;-17125.47;4954316;29;20121;-74
2023/06/06 01:49:44;;;;;;;17.20;7.40;;;;;;;-148.88;100.00;-17125.47;4955414;29;20077;-74
2023/06/06 01:52:10;;;;;;;28.23;13.02;;;;;;;-148.88;100.00;-17125.47;4954531;28;20101;-74
2023/06/06 01:54:36;;;;;;;22.75;13.90;;;;;;;-148.88;100.00;-17125.47;4955483;28;20549;-73
2023/06/06 01:57:02;;;;;;;27.15;14.00;;;;;;;-148.88;100.00;-17125.47;4955459;28;20147;-74
2023/06/06 01:59:27;;;;;;;17.70;7.75;;;;;;;-148.88;100.00;-17125.47;4955115;29;20027;-74
2023/06/06 02:01:53;;;;;;;19.55;7.90;;;;;;;-148.88;100.00;-17125.47;4955691;29;20059;-73
2023/06/06 02:04:18;;;;;;;24.33;13.70;;;;;;;-148.88;100.00;-17125.47;4955188;29;20056;-74
2023/06/06 02:06:43;;;;;;;25.48;15.02;;;;;;;-148.88;100.00;-17125.47;4954001;28;20028;-74
2023/06/06 02:09:10;;;;;;;19.10;7.45;;;;;;;-148.88;100.00;-17125.47;4955209;29;20027;-73
2023/06/06 02:11:36;;;;;;;26.13;14.77;;;;;;;-148.88;100.00;-17125.47;4955074;29;20078;-73
2023/06/06 02:14:02;;;;;;;23.40;14.63;;;;;;;-148.88;100.00;-17125.47;4954944;28;20026;-73
2023/06/06 02:16:29;;;;;;;23.98;14.95;;;;;;;-148.88;100.00;-17125.47;4954932;28;20038;-73
2023/06/06 02:18:55;;;;;;;27.30;15.32;;;;;;;-148.88;100.00;-17125.47;4954981;29;20374;-74
2023/06/06 02:21:21;;;;;;;25.95;15.30;;;;;;;-148.88;100.00;-17125.47;4954924;29;20031;-73
2023/06/06 02:23:46;;;;;;;27.92;16.05;;;;;;;-148.88;100.00;-17125.47;4954874;29;20078;-73
2023/06/06 02:26:12;;;;;;;21.70;7.70;;;;;;;-148.88;100.00;-17125.47;4954749;28;20098;-73
2023/06/06 02:28:37;;;;;;;24.90;9.38;;;;;;;-148.88;100.00;-17125.47;4953711;29;20093;-73
2023/06/06 02:31:03;;;;;;;27.80;16.23;;;;;;;-148.88;100.00;-17125.47;4953552;29;20033;-73
2023/06/06 02:33:28;;;;;;;26.55;16.17;;;;;;;-148.88;100.00;-17125.47;4953483;29;20015;-73
2023/06/06 02:35:54;;;;;;;28.42;16.88;;;;;;;-148.88;100.00;-17125.47;4954658;28;20035;-74
2023/06/06 02:38:20;;;;;;;28.92;17.15;;;;;;;-148.88;100.00;-17125.47;4955063;28;20032;-73
2023/06/06 02:40:46;;;;;;;20.77;9.50;;;;;;;-148.88;100.00;-17125.47;4955168;28;20030;-74
2023/06/06 02:43:11;;;;;;;28.15;16.25;;;;;;;-148.88;100.00;-17125.47;4953646;29;20019;-74
2023/06/06 02:45:36;;;;;;;31.75;16.77;;;;;;;-148.88;100.00;-17125.47;4954543;28;20031;-74
2023/06/06 02:48:02;;;;;;;32.50;16.67;;;;;;;-148.88;100.00;-17125.47;4953398;29;20073;-74
2023/06/06 02:50:28;;;;;;;32.17;17.23;;;;;;;-148.88;100.00;-17125.47;4954657;29;20110;-74
2023/06/06 02:52:55;;;;;;;31.88;17.25;;;;;;;-148.88;100.00;-17125.47;4953248;29;20023;-74
2023/06/06 02:55:20;;;;;;;24.77;8.73;;;;;;;-148.88;100.00;-17125.47;4952979;28;20118;-74
2023/06/06 02:57:46;;;;;;;27.83;16.02;;;;;;;-148.88;100.00;-17125.47;4954508;29;20449;-74
2023/06/06 03:00:12;;;;;;;27.10;16.65;;;;;;;-148.88;100.00;-17125.47;4954488;29;20035;-74
2023/06/06 03:02:38;;;;;;;24.95;9.45;;;;;;;-148.88;100.00;-17125.47;4954310;28;20027;-74
2023/06/06 03:05:04;;;;;;;32.28;16.17;;;;;;;-148.88;100.00;-17125.47;4953931;28;20026;-73
2023/06/06 03:07:30;;;;;;;20.05;10.13;;;;;;;-148.88;100.00;-17125.47;4954330;29;20033;-73
2023/06/06 03:09:56;;;;;;;28.13;16.73;;;;;;;-148.88;100.00;-17125.47;4954372;29;20110;-73
2023/06/06 03:12:21;;;;;;;31.33;17.45;;;;;;;-148.88;100.00;-17125.47;4954316;29;20102;-73
2023/06/06 03:14:47;;;;;;;32.83;17.65;;;;;;;-148.88;100.00;-17125.47;4954369;28;20111;-73
2023/06/06 03:17:12;;;;;;;29.20;17.40;;;;;;;-148.88;100.00;-17125.47;4954489;29;20042;-73
2023/06/06 03:19:37;;;;;;;29.25;17.25;;;;;;;-148.88;100.00;-17125.47;4952943;29;20027;-73
2023/06/06 03:22:03;;;;;;;32.15;17.52;;;;;;;-148.88;100.00;-17125.47;4952846;29;20082;-74
2023/06/06 03:24:29;;;;;;;30.27;17.88;;;;;;;-148.88;100.00;-17125.47;4952852;29;20019;-73
2023/06/06 03:26:56;;;;;;;29.50;17.23;;;;;;;-148.88;100.00;-17125.47;4954032;28;20031;-74
2023/06/06 03:29:21;;;;;;;26.92;17.08;;;;;;;-148.88;100.00;-17125.47;4952793;29;20413;-74
2023/06/06 03:31:49;;;;;;;21.75;9.27;;;;;;;-148.88;100.00;-17125.47;4954056;29;20046;-74
2023/06/06 03:34:14;;;;;;;33.20;17.63;;;;;;;-148.88;100.00;-17125.47;4954073;28;20027;-74
2023/06/06 03:36:40;;;;;;;21.85;9.18;;;;;;;-148.88;100.00;-17125.47;4953880;28;20038;-74
2023/06/06 03:39:06;;;;;;;31.88;17.05;;;;;;;-148.88;100.00;-17125.47;4954265;28;20031;-74
2023/06/06 03:41:31;;;;;;;34.58;17.35;;;;;;;-148.88;100.00;-17125.47;4954116;29;20102;-73
2023/06/06 03:43:58;;;;;;;29.90;17.73;;;;;;;-148.88;100.00;-17125.47;4954357;29;20035;-74
2023/06/06 03:46:23;;;;;;;32.60;17.67;;;;;;;-148.88;100.00;-17125.47;4954149;28;20031;-75
2023/06/06 03:48:49;;;;;;;30.48;17.70;;;;;;;-148.88;100.00;-17125.47;4954740;29;20055;-75
2023/06/06 03:51:14;;;;;;;31.50;17.45;;;;;;;-148.88;100.00;-17125.47;4954292;28;20023;-75
2023/06/06 03:53:40;;;;;;;34.58;18.50;;;;;;;-148.88;100.00;-17125.47;4972184;23;20050;-76
2023/06/06 03:56:06;;;;;;;29.13;9.98;;;;;;;-148.88;100.00;-17125.47;4980270;23;20043;-75
2023/06/06 03:58:32;;;;;;;35.10;18.75;;;;;;;-148.88;100.00;-17125.47;4973216;28;20073;-75
2023/06/06 04:01:01;;;;;;;35.35;19.55;;;;;;;-148.88;100.00;-17125.47;4973291;28;20042;-74
2023/06/06 04:03:27;;;;;;;33.53;18.55;;;;;;;-148.88;100.00;-17125.47;4971720;28;20030;-76
2023/06/06 04:05:53;;;;;;;37.33;20.48;;;;;;;-148.88;100.00;-17125.47;4972821;28;20022;-75
2023/06/06 04:08:19;;;;;;;34.08;18.95;;;;;;;-148.88;100.00;-17125.47;4985188;23;20505;-73
2023/06/06 04:10:45;;;;;;;36.92;19.73;;;;;;;-148.88;100.00;-17125.47;4973813;28;20401;-74
2023/06/06 04:13:10;;;;;;;32.65;19.30;;;;;;;-148.88;100.00;-17125.47;4973770;28;20027;-73
2023/06/06 04:15:35;;;;;;;36.85;19.77;;;;;;;-148.88;100.00;-17125.47;4974694;28;20491;-74
2023/06/06 04:18:01;;;;;;;35.88;21.02;;;;;;;-148.88;100.00;-17125.47;4977429;28;20054;-73
2023/06/06 04:20:27;;;;;;;35.60;19.60;;;;;;;-148.88;100.00;-17125.47;4977771;28;20433;-74
2023/06/06 04:22:53;;;;;;;26.35;9.63;;;;;;;-148.88;100.00;-17125.47;4977047;28;20027;-74
2023/06/06 04:25:18;;;;;;;28.88;11.32;;;;;;;-148.88;100.00;-17125.47;4977215;28;20075;-73
2023/06/06 04:27:44;;;;;;;36.97;21.38;;;;;;;-148.88;100.00;-17125.47;4976984;28;20062;-73
2023/06/06 04:30:14;;;;;;;39.38;21.70;;;;;;;-148.88;100.00;-17125.47;4976870;28;20056;-73
2023/06/06 04:32:40;;;;;;;28.30;10.75;;;;;;;-148.88;100.00;-17125.47;4975687;28;20019;-73
2023/06/06 04:35:09;;;;;;;33.58;20.25;;;;;;;-148.88;100.00;-17125.47;4976693;28;20053;-73
2023/06/06 04:37:36;;;;;;;34.92;20.00;;;;;;;-148.88;100.00;-17125.47;4976740;28;20053;-73
2023/06/06 04:40:04;;;;;;;32.75;18.63;;;;;;;-148.88;100.00;-17125.47;4976723;28;20026;-73
2023/06/06 04:42:32;;;;;;;29.23;11.30;;;;;;;-148.88;100.00;-17125.47;4976928;28;20050;-73
2023/06/06 04:45:00;;;;;;;33.58;12.18;;;;;;;-148.88;100.00;-17125.47;4976548;28;20050;-73
2023/06/06 04:47:28;;;;;;;34.28;20.02;;;;;;;-148.88;100.00;-17125.47;4976665;28;20072;-74
2023/06/06 04:49:54;;;;;;;36.50;19.95;;;;;;;-148.88;100.00;-17125.47;4976717;28;20034;-74
2023/06/06 04:52:19;;;;;;;43.70;20.55;;;;;;;-148.88;100.00;-17125.47;4976887;28;20482;-73
2023/06/06 04:54:45;;;;;;;37.15;20.90;;;;;;;-148.88;100.00;-17125.47;4976645;28;20026;-73
2023/06/06 04:57:17;;;;;;;27.10;11.38;;;;;;;-148.88;100.00;-17125.47;4977182;28;20105;-74
2023/06/06 04:59:52;;;;;;;33.65;19.48;;;;;;;-148.88;100.00;-17125.47;4977124;28;20061;-74
2023/06/06 05:02:22;;;;;;;34.13;19.67;;;;;;;-148.88;100.00;-17125.47;4976698;28;20065;-74
2023/06/06 05:04:54;;;;;;;36.70;20.15;;;;;;;-148.88;100.00;-17125.47;4974947;28;20027;-74
2023/06/06 05:07:24;;;;;;;37.83;20.90;;;;;;;-148.88;100.00;-17125.47;4976382;28;20466;-73
2023/06/06 05:09:53;;;;;;;37.88;20.38;;;;;;;-148.88;100.00;-17125.47;4976085;28;20031;-74
2023/06/06 05:12:18;;;;;;;35.83;20.77;;;;;;;-148.88;100.00;-17125.47;4976105;28;20030;-73
2023/06/06 05:14:44;;;;;;;37.08;19.77;;;;;;;-148.88;100.00;-17125.47;4975879;28;20041;-73
2023/06/06 05:17:10;;;;;;;31.55;19.90;;;;;;;-148.88;100.00;-17125.47;4976289;28;20062;-73
2023/06/06 05:19:35;;;;;;;35.00;20.27;;;;;;;-148.88;100.00;-17125.47;4976239;28;20069;-72
2023/06/06 05:22:00;;;;;;;31.75;19.42;;;;;;;-148.88;100.00;-17125.47;4976191;28;20027;-73
2023/06/06 05:24:26;;;;;;;32.92;18.90;;;;;;;-148.88;100.00;-17125.47;4975946;28;20062;-73
2023/06/06 05:26:51;;;;;;;28.73;18.55;;;;;;;-148.88;100.00;-17125.47;4975697;28;20110;-73
2023/06/06 05:29:17;;;;;;;30.65;19.27;;;;;;;-148.88;100.00;-17125.47;4975886;28;20135;-73
2023/06/06 05:31:42;;;;;;;34.08;19.60;;;;;;;-148.88;100.00;-17125.47;4973312;28;20026;-74
2023/06/06 05:34:07;;;;;;;29.05;18.20;;;;;;;-148.88;100.00;-17125.47;4975954;28;20052;-74
2023/06/06 05:36:33;;;;;;;30.98;18.67;;;;;;;-148.88;100.00;-17125.47;4975863;28;20174;-74
2023/06/06 05:38:59;;;;;;;28.95;17.25;;;;;;;-148.88;100.00;-17125.47;4975745;28;20023;-75
2023/06/06 05:41:25;;;;;;;29.30;18.02;;;;;;;-148.88;100.00;-17125.47;4974192;28;20035;-74
2023/06/06 05:43:50;;;;;;;29.40;18.25;;;;;;;-148.88;100.00;-17125.47;4975518;28;20030;-75
2023/06/06 05:46:17;;;;;;;28.70;18.40;;;;;;;-148.88;100.00;-17125.47;4975069;28;20030;-75
2023/06/06 05:48:43;;;;;;;29.90;18.80;;;;;;;-148.88;100.00;-17125.47;4975261;28;20418;-74
2023/06/06 05:51:08;;;;;;;27.42;17.10;;;;;;;-148.88;100.00;-17125.47;4974998;28;20030;-75
2023/06/06 05:53:46;;;;;;;28.42;18.35;;;;;;;-148.88;100.00;-17125.47;4975265;28;20207;-74
2023/06/06 05:56:13;;;;;;;28.58;18.35;;;;;;;-148.88;100.00;-17125.47;4975258;28;20493;-75
2023/06/06 05:58:40;;;;;;;30.98;18.85;;;;;;;-148.88;100.00;-17125.47;4975290;28;20067;-74
2023/06/06 06:01:05;;;;;;;29.65;18.10;;;;;;;-148.88;100.00;-17125.47;4975195;28;20105;-75
2023/06/06 06:03:32;;;;;;;27.63;16.80;;;;;;;-148.88;100.00;-17125.47;4975174;28;20069;-74
2023/06/06 06:06:02;;;;;;;24.20;16.58;;;;;;;-148.88;100.00;-17125.47;4973887;28;20085;-74
2023/06/06 06:08:29;;;;;;;26.15;16.52;;;;;;;-148.88;100.00;-17125.47;4975279;28;20031;-75
2023/06/06 06:10:55;;;;;;;25.10;16.40;;;;;;;-148.88;100.00;-17125.47;4974491;28;20114;-75
2023/06/06 06:13:21;;;;;;;27.20;17.70;;;;;;;-148.88;100.00;-17125.47;4975527;28;20077;-75
2023/06/06 06:15:46;;;;;;;27.20;17.05;;;;;;;-148.88;100.00;-17125.47;4973722;28;20023;-74
2023/06/06 06:18:12;;;;;;;25.00;16.58;;;;;;;-148.88;100.00;-17125.47;4974961;28;20022;-74
2023/06/06 06:20:37;;;;;;;23.25;15.55;;;;;;;-148.88;100.00;-17125.47;4974768;28;20157;-74
2023/06/06 06:23:03;;;;;;;24.23;15.50;;;;;;;-148.88;100.00;-17125.47;4974847;28;20038;-74
2023/06/06 06:25:28;;;;;;;24.40;15.48;;;;;;;-148.88;100.00;-17125.47;4974872;28;20027;-74
2023/06/06 06:27:55;;;;;;;22.25;15.27;;;;;;;-148.88;100.00;-17125.47;4975119;28;20055;-74
2023/06/06 06:30:21;;;;;;;24.40;15.57;;;;;;;-148.88;100.00;-17125.47;4974763;28;20077;-73
2023/06/06 06:32:46;;;;;;;23.27;14.45;;;;;;;-148.88;100.00;-17125.47;4974681;28;20482;-73
2023/06/06 06:35:12;;;;;;;24.52;15.00;;;;;;;-148.88;100.00;-17125.47;4974955;28;20027;-74
2023/06/06 06:37:38;;;;;;;21.52;15.82;;;;;;;-148.88;100.00;-17125.47;4973081;28;20031;-74
2023/06/06 06:40:06;;;;;;;25.63;14.65;;;;;;;-148.88;100.00;-17125.47;4974431;28;20038;-74
2023/06/06 06:42:32;;;;;;;23.27;14.65;;;;;;;-148.88;100.00;-17125.47;4974584;28;20479;-74
2023/06/06 06:44:57;;;;;;;23.25;13.98;;;;;;;-148.88;100.00;-17125.47;4974824;28;20062;-75
2023/06/06 06:47:23;;;;;;;21.88;14.15;;;;;;;-148.88;100.00;-17125.47;4975131;28;20029;-74
2023/06/06 06:49:49;;;;;;;24.05;15.07;;;;;;;-148.88;100.00;-17125.47;4974605;28;20499;-75
2023/06/06 06:52:16;;;;;;;24.00;13.50;;;;;;;-148.88;100.00;-17125.47;4973203;28;20038;-74
2023/06/06 06:54:45;;;;;;;21.05;13.75;;;;;;;-148.88;100.00;-17125.47;4974317;28;20022;-74
2023/06/06 06:57:11;;;;;;;20.40;13.93;;;;;;;-148.88;100.00;-17125.47;4974406;28;20557;-74
2023/06/06 06:59:36;;;;;;;20.55;13.93;;;;;;;-148.88;100.00;-17125.47;4973030;28;20117;-74
2023/06/06 07:02:02;;;;;;;19.42;13.98;;;;;;;-148.88;100.00;-17125.47;4974494;28;20026;-75
2023/06/06 07:04:28;;;;;;;19.70;12.95;;;;;;;-148.88;100.00;-17125.47;4974273;28;20026;-73
2023/06/06 07:06:54;;;;;;;17.25;12.27;;;;;;;-148.88;100.00;-17125.47;4972789;28;20049;-73
2023/06/06 07:09:20;;;;;;;18.55;11.55;;;;;;;-148.88;100.00;-17125.47;4972940;28;20406;-73
2023/06/06 07:11:45;;;;;;;19.38;12.75;;;;;;;-148.88;100.00;-17125.47;4973008;28;20041;-75
2023/06/06 07:14:11;;;;;;;20.95;12.35;;;;;;;-148.88;100.00;-17125.47;4974165;28;20031;-75
2023/06/06 07:16:36;;;;;;;17.27;11.13;;;;;;;-148.88;100.00;-17125.47;4974725;28;20034;-75
2023/06/06 07:19:01;;;;;;;18.23;10.95;;;;;;;-148.88;100.00;-17125.47;4974259;28;20030;-75
2023/06/06 07:21:27;;;;;;;17.73;11.68;;;;;;;-148.88;100.00;-17125.47;4974495;28;20077;-75
2023/06/06 07:23:52;;;;;;;16.80;11.15;;;;;;;-148.88;100.00;-17125.47;4974429;28;20101;-76
2023/06/06 07:26:19;;;;;;;17.40;11.13;;;;;;;-148.88;100.00;-17125.47;4974274;28;20037;-75
2023/06/06 07:28:46;;;;;;;17.20;10.60;;;;;;;-148.88;100.00;-17125.47;4974116;28;20402;-75
2023/06/06 07:31:12;;;;;;;17.13;10.85;;;;;;;-148.88;100.00;-17125.47;4974336;28;20030;-75
2023/06/06 07:33:37;;;;;;;18.27;11.30;;;;;;;-148.88;100.00;-17125.47;4973935;28;20023;-74
2023/06/06 07:36:03;;;;;;;18.35;11.73;;;;;;;-148.88;100.00;-17125.47;4974008;28;20509;-75
2023/06/06 07:38:29;;;;;;;15.75;10.45;;;;;;;-148.88;100.00;-17125.47;4974011;28;20098;-75
2023/06/06 07:40:54;;;;;;;16.55;10.50;;;;;;;-148.88;100.00;-17125.47;4973921;28;20034;-75
2023/06/06 07:43:19;;;;;;;12.98;9.77;;;;;;;-148.88;100.00;-17125.47;4974672;28;20493;-74
2023/06/06 07:45:45;;;;;;;15.80;10.85;;;;;;;-148.88;100.00;-17125.47;4973852;28;20523;-75
2023/06/06 07:48:10;;;;;;;19.52;10.32;;;;;;;-148.88;100.00;-17125.47;4974238;28;20073;-75
2023/06/06 07:50:36;;;;;;;14.23;10.48;;;;;;;-148.88;100.00;-17125.47;4976701;28;20046;-75
2023/06/06 07:53:01;;;;;;;16.25;9.95;;;;;;;-148.88;100.00;-17125.47;4978233;28;20061;-75
2023/06/06 07:55:28;;;;;;;14.75;10.20;;;;;;;-148.88;100.00;-17125.47;4976238;28;20023;-75
2023/06/06 07:57:53;;;;;;;13.52;9.30;;;;;;;-148.88;100.00;-17125.47;4976530;28;20022;-75
2023/06/06 08:00:19;;;;;;;15.10;9.18;;;;;;;-148.88;100.00;-17125.47;4978171;28;20030;-75
2023/06/06 08:02:44;;;;;;;14.50;9.50;;;;;;;-148.88;100.00;-17125.47;4977963;28;20039;-75
2023/06/06 08:05:11;;;;;;;15.35;9.30;;;;;;;-148.88;100.00;-17125.47;4978104;28;20102;-75
2023/06/06 08:07:38;;;;;;;12.15;8.40;;;;;;;-148.88;100.00;-17125.47;4977348;28;20027;-75
2023/06/06 08:10:06;;;;;;;13.13;9.00;;;;;;;-148.88;98.84;-17125.47;4977306;28;20027;-76
2023/06/06 08:12:31;;;;;;;13.00;8.88;;;;;;;-148.88;99.70;-17125.47;4977669;28;20046;-76
2023/06/06 08:14:57;;;;;;;12.88;8.32;;;;;;;-148.88;96.54;-17125.47;4977228;28;20482;-76
2023/06/06 08:17:22;;;;;;;13.43;7.97;;;;;;;-148.88;97.11;-17125.47;4978427;28;20545;-76
2023/06/06 08:19:48;;;;;;;13.75;7.85;;;;;;;-148.88;98.36;-17125.47;4975808;28;20070;-75
2023/06/06 08:22:13;;;;;;;10.30;7.32;;;;;;;-148.88;98.41;-17125.47;4976933;28;20081;-75
2023/06/06 08:24:39;;;;;;;9.85;7.22;;;;;;;-148.88;95.93;-17125.47;4976842;28;20494;-75
2023/06/06 08:27:05;;;;;;;10.20;7.35;;;;;;;-148.88;94.92;-17125.47;4976674;28;20097;-75
2023/06/06 08:29:31;;;;;;;15.32;7.90;;;;;;;-148.88;94.98;-17125.47;4976868;28;20172;-75
2023/06/06 08:31:56;;;;;;;15.05;7.55;;;;;;;-148.88;95.33;-17125.47;4977142;28;20101;-75
2023/06/06 08:34:22;;;;;;;9.88;7.10;;;;;;;-148.88;93.31;-17125.47;4977083;28;20051;-75
2023/06/06 08:36:48;;;;;;;11.68;7.32;;;;;;;-148.88;93.47;-17125.47;4976750;28;20104;-75
2023/06/06 08:39:15;;;;;;;8.75;6.25;;;;;;;-148.88;93.05;-17125.47;4976806;28;20118;-75
2023/06/06 08:42:01;;;;;;;11.27;7.35;;;;;;;-148.88;93.05;-17125.47;4976813;28;20029;-74
2023/06/06 08:44:27;;;;;;;15.18;6.88;;;;;;;-148.88;94.34;-17125.47;4976520;28;20066;-74
2023/06/06 08:46:57;;;;;;;12.45;7.32;;;;;;;-148.88;89.09;-17125.47;4976676;28;20113;-75
2023/06/06 08:49:25;;;;;;;12.40;6.90;;;;;;;-148.88;86.74;-17125.47;4976974;28;20027;-75
2023/06/06 08:51:51;;;;;;;11.27;6.90;;;;;;;-148.88;89.49;-17125.47;4976858;28;20165;-76
2023/06/06 08:54:20;;;;;;;19.65;6.68;;;;;;;-148.88;88.96;-17125.47;4976477;28;20113;-74
2023/06/06 08:56:46;;;;;;;10.77;6.45;;;;;;;-148.88;90.68;-17125.47;4976420;28;20568;-75
2023/06/06 08:59:12;;;;;;;11.77;7.35;;;;;;;-148.88;90.34;-17125.47;4976439;28;20062;-76
2023/06/06 09:01:38;;;;;;;13.77;6.75;;;;;;;-148.88;88.09;-17125.47;4976335;28;20053;-75
2023/06/06 09:04:06;;;;;;;7.93;6.10;;;;;;;-148.88;85.98;-17125.47;4975395;28;20469;-75
2023/06/06 09:06:40;;;;;;;9.27;5.65;;;;;;;-148.88;84.55;-17125.47;4976194;28;20031;-74
2023/06/06 09:09:08;;;;;;;8.30;5.15;;;;;;;-148.88;85.47;-17125.47;4976449;28;20064;-74
2023/06/06 09:11:35;;;;;;;9.40;5.18;;;;;;;-148.88;83.67;-17125.47;4976558;28;20390;-74
2023/06/06 09:14:00;;;;;;;9.57;5.32;;;;;;;-148.88;81.42;-17125.47;4976403;28;20034;-74
2023/06/06 09:16:26;;;;;;;12.73;5.13;;;;;;;-148.88;81.46;-17125.47;4976513;28;20023;-74
2023/06/06 09:18:52;;;;;;;9.63;5.55;;;;;;;-148.88;85.56;-17125.47;4974940;28;20486;-74
2023/06/06 09:21:18;;;;;;;8.27;5.55;;;;;;;-148.88;85.05;-17125.47;4976153;28;20040;-73
2023/06/06 09:23:44;;;;;;;9.07;5.00;;;;;;;-148.88;81.77;-17125.47;4976045;28;20027;-72
2023/06/06 09:26:20;;;;;;;9.35;4.90;;;;;;;-148.88;79.95;-17125.47;4975919;28;20019;-73
2023/06/06 09:28:48;;;;;;;9.98;5.70;;;;;;;-148.88;75.76;-17125.47;4976266;28;20405;-72
2023/06/06 09:31:29;;;;;;;7.63;4.53;;;;;;;-148.88;73.99;-17125.47;4976117;28;20026;-72
2023/06/06 09:33:57;;;;;;;9.75;5.15;;;;;;;-148.88;73.46;-17125.47;4976089;28;20057;-72
2023/06/06 09:36:28;;;;;;;9.10;4.75;;;;;;;-148.88;73.29;-17125.47;4976042;28;20062;-73
2023/06/06 09:38:58;;;;;;;7.78;4.90;;;;;;;-148.88;73.52;-17125.47;4975720;28;20135;-73
2023/06/06 09:41:27;;;;;;;8.95;5.10;;;;;;;-148.88;76.89;-17125.47;4975725;28;20064;-73
2023/06/06 09:43:52;;;;;;;7.25;5.30;;;;;;;-148.88;72.79;-17125.47;4975734;28;20069;-72
2023/06/06 09:46:18;;;;;;;7.32;4.40;;;;;;;-148.88;71.96;-17125.47;4975778;28;20027;-73
2023/06/06 09:48:58;;;;;;;10.70;5.05;;;;;;;-148.88;69.20;-17125.47;4975611;28;20069;-73
2023/06/06 09:51:25;;;;;;;11.13;5.80;;;;;;;-148.88;74.46;-17125.47;4975936;28;20022;-72
2023/06/06 09:53:51;;;;;;;10.38;5.20;;;;;;;-148.88;80.52;-17125.47;4975395;28;20026;-73
2023/06/06 09:56:22;;;;;;;7.32;4.82;;;;;;;-148.88;80.19;-17125.47;4975377;28;20026;-73
2023/06/06 09:58:55;;;;;;;9.32;5.28;;;;;;;-148.88;75.13;-17125.47;4975428;28;20023;-75
2023/06/06 10:01:27;;;;;;;7.88;5.18;;;;;;;-148.88;75.71;-17125.47;4975640;28;20022;-74
2023/06/06 10:03:55;;;;;;;8.30;4.70;;;;;;;-148.88;75.73;-17125.47;4975481;28;20073;-75
2023/06/06 10:06:20;;;;;;;6.75;4.80;;;;;;;-148.88;74.50;-17125.47;4975297;28;20037;-75
2023/06/06 10:08:47;;;;;;;8.55;5.28;;;;;;;-148.88;73.21;-17125.47;4975550;28;20039;-75
2023/06/06 10:11:13;;;;;;;8.60;4.65;;;;;;;-148.88;74.07;-17125.47;4975173;28;20027;-75
2023/06/06 10:13:38;;;;;;;7.90;5.32;;;;;;;-148.88;70.03;-17125.47;4974186;28;20081;-75
2023/06/06 10:16:04;;;;;;;6.82;4.97;;;;;;;-148.88;71.44;-17125.47;4975257;28;20390;-75
2023/06/06 10:18:30;;;;;;;9.85;4.95;;;;;;;-148.88;73.17;-17125.47;4975329;28;20026;-73
2023/06/06 10:20:56;;;;;;;9.07;5.07;;;;;;;-148.88;70.28;-17125.47;4975019;28;20041;-73
2023/06/06 10:23:22;;;;;;;10.15;4.40;;;;;;;-148.88;66.08;-17125.47;4975442;28;20026;-73
2023/06/06 10:25:47;;;;;;;6.57;4.22;;;;;;;-148.88;65.87;-17125.47;4974937;28;20026;-72
2023/06/06 10:28:22;;;;;;;5.72;4.13;;;;;;;-148.88;67.85;-17125.47;4975228;28;20085;-72
2023/06/06 10:30:59;;;;;;;7.72;4.70;;;;;;;-148.88;68.56;-17125.47;4975305;28;20082;-73
2023/06/06 10:33:42;;;;;;;7.28;3.95;;;;;;;-148.88;68.01;-17125.47;4975042;28;20034;-72
2023/06/06 10:36:10;;;;;;;6.07;3.80;;;;;;;-148.88;66.24;-17125.47;4974962;28;20081;-73
2023/06/06 10:38:37;;;;;;;7.78;4.00;;;;;;;-148.88;65.03;-17125.47;4974704;28;20038;-74
2023/06/06 10:41:19;;;;;;;7.13;4.35;;;;;;;-148.88;64.25;-17125.47;4974902;28;20084;-74
2023/06/06 10:43:47;;;;;;;7.05;4.05;;;;;;;-148.88;63.50;-17125.47;4974862;28;20047;-75
2023/06/06 10:46:12;;;;;;;8.55;4.30;;;;;;;-148.88;63.82;-17125.47;4974825;28;20035;-74
2023/06/06 10:48:38;;;;;;;6.70;4.15;;;;;;;-148.88;63.31;-17125.47;4974571;28;20029;-72
2023/06/06 10:51:08;;;;;;;7.00;4.20;;;;;;;-148.88;62.57;-17125.47;4974747;28;20057;-74